map of CIA home
CIA - Airport
Location
City:  Rome, Lazio, Italy
Near (Alt.):Roma
Name:Ciampino-Giovan Battista Pastine International Airport
ICAO:LIRA
IATA:CIA

Details
Type:Airport (Aerodrome, Airfield)
Use:Public/Civil, Military, International (customs port of entry)
Latitude:4147'58"N (41.799361)
Longitude:1235'42"E (12.594936)
Datum:WGS 1984
Elevation:427 ft (130 m)
Variation:3.01E (WMM2015 magnetic declination)
0.11 annual change
Runways:1
Longest:7242 × 154 ft (2207 × 47 m), paved

Time
Time Zone:UTC+1 (DST+2)
Local Time:

Weather
METAR:LIRA 250550Z VRB01KT CAVOK 25/19 Q1016
TAF:LIRA 250500Z 2506/2606 VRB04KT 9999 FEW030
BECMG 2510/2512 24010KT
BECMG 2516/2518 VRB05KT

Related Locations
Nearby:
Farthest:CHT: 11960 mi / 19247 km
Waitangi [Tuuta], CIT, NZ

Find:

   beyond  
but within

Other Information
Maps:
NOTAMs:
Links:
Sources:

  
flag of Italy
flag of Lazio
flag of Rome
  

Sectional Chart

Flight Planning
at skyvector.com

Satellite Image

Google Maps Satellite view

 

Copyright © 2004-2017 Karl L. Swartz. All rights reserved.
The Great Circle Mapper name and logo are trademarks of the Great Circle Mapper.
All other trademarks mentioned herein belong to their respective owners.
Please see credits for attibutions and further copyright information.

  Follow gcmap on Facebook Follow gcmap on Twitter Follow gcmap on Google+ GCmap on LinkedIn

hCard Microformat

Geo Microformat